Cedar Mills, Minnesota
Current Conditions -  °F | °C
As of 7:32 AM on Sunday 21 Dec 2014 (Local Time) from KHCD Reporting Station
Haze Haze  
Wind Chill: 29°   Ceiling: 200
Heat Index: 33°   Visibility: 0.75mi
Dew Point: 33°   Wind: 5mph
Humidity: 100%   Direction: 150°SSE
Pressure: 29.86"   Gusts: NA
Location:  44.9062°N, 94.4284°W
Report Text: KHCD 211332Z AUTO 15004KT 3/4SM BR OVC002 01/01 A2986 RMK AO2 T00060006
Loading
Personal Weather Stations






























Interactive Weather Map New forecast layout! Learn more

10-Day Weather Forecast

Advertisements
Track Severe Weather on mobile